createdAt,value
2022-12-03T00:00:38.911Z,19.80
2022-12-03T00:03:05.986Z,19.90
2022-12-03T00:05:33.151Z,19.70
2022-12-03T00:08:00.151Z,19.40
2022-12-03T00:10:27.101Z,19.50
2022-12-03T00:12:53.952Z,19.10
2022-12-03T00:15:20.954Z,18.90
2022-12-03T00:17:47.861Z,18.80
2022-12-03T00:20:23.952Z,18.80
2022-12-03T00:22:50.885Z,18.80
2022-12-03T00:25:18.134Z,18.80
2022-12-03T00:27:45.013Z,18.80
2022-12-03T00:30:12.635Z,18.70
2022-12-03T00:32:39.556Z,18.80
2022-12-03T00:35:06.843Z,19.30
2022-12-03T00:37:35.298Z,18.50
2022-12-03T00:40:03.540Z,18.60
2022-12-03T00:42:30.511Z,18.60
2022-12-03T00:44:57.393Z,18.50
2022-12-03T00:47:24.302Z,18.50
2022-12-03T00:49:51.383Z,18.40
2022-12-03T00:52:18.355Z,18.40
2022-12-03T00:54:45.619Z,18.40
2022-12-03T00:57:12.591Z,18.40
2022-12-03T00:59:39.518Z,18.40
2022-12-03T01:02:06.506Z,18.40
2022-12-03T01:04:34.035Z,18.40
2022-12-03T01:07:01.519Z,18.60
2022-12-03T01:09:28.469Z,18.60
2022-12-03T01:11:55.366Z,18.60
2022-12-03T01:14:22.318Z,18.50
2022-12-03T01:16:49.361Z,18.70
2022-12-03T01:19:16.932Z,18.60
2022-12-03T01:21:45.940Z,18.60
2022-12-03T01:24:12.934Z,18.70
2022-12-03T01:26:39.885Z,18.70
2022-12-03T01:29:07.154Z,18.70
2022-12-03T01:31:52.405Z,18.70
2022-12-03T01:34:19.419Z,18.60
2022-12-03T01:36:46.412Z,18.30
2022-12-03T01:39:13.402Z,18.50
2022-12-03T01:41:40.949Z,18.70
2022-12-03T01:44:33.363Z,18.50
2022-12-03T01:47:03.134Z,18.30
2022-12-03T01:49:54.114Z,18.40
2022-12-03T01:52:26.662Z,18.50
2022-12-03T01:54:59.794Z,18.50
2022-12-03T01:57:29.391Z,18.70
2022-12-03T01:59:58.409Z,18.60
2022-12-03T02:02:30.664Z,18.50
2022-12-03T02:04:58.019Z,18.50
2022-12-03T02:07:33.550Z,18.60
2022-12-03T02:10:02.277Z,18.70
2022-12-03T02:12:35.365Z,18.80
2022-12-03T02:15:03.449Z,18.90
2022-12-03T02:17:31.050Z,18.80
2022-12-03T02:19:58.638Z,18.80
2022-12-03T02:22:31.713Z,19.10
2022-12-03T02:25:27.366Z,19.00
2022-12-03T02:27:55.435Z,19.00
2022-12-03T02:30:24.743Z,18.80
2022-12-03T02:32:53.178Z,18.70
2022-12-03T02:35:23.006Z,18.50
2022-12-03T02:37:58.767Z,18.20
2022-12-03T02:40:29.686Z,18.20
2022-12-03T02:43:01.395Z,18.20
2022-12-03T02:45:32.592Z,18.10
2022-12-03T02:48:01.505Z,18.00
2022-12-03T02:50:32.995Z,17.90
2022-12-03T02:53:05.231Z,17.90
2022-12-03T02:55:37.185Z,17.90
2022-12-03T02:58:05.567Z,17.80
2022-12-03T03:00:33.758Z,17.80
2022-12-03T03:03:02.880Z,17.80
2022-12-03T03:05:32.147Z,17.70
2022-12-03T03:08:00.972Z,17.70
2022-12-03T03:10:29.954Z,17.80
2022-12-03T03:12:57.248Z,17.80
2022-12-03T03:15:25.267Z,17.70
2022-12-03T03:17:52.491Z,17.80
2022-12-03T03:20:19.612Z,17.80
2022-12-03T03:22:46.782Z,17.80
2022-12-03T03:25:18.740Z,17.80
2022-12-03T03:27:45.984Z,17.80
2022-12-03T03:30:14.164Z,17.80
2022-12-03T03:32:42.159Z,17.90
2022-12-03T03:35:10.828Z,18.00
2022-12-03T03:37:38.428Z,18.00
2022-12-03T03:40:06.125Z,18.00
2022-12-03T03:42:33.118Z,17.80
2022-12-03T03:45:00.215Z,17.80
2022-12-03T03:47:27.152Z,17.80
2022-12-03T03:49:54.527Z,17.80
2022-12-03T03:52:21.583Z,17.80
2022-12-03T03:54:48.883Z,17.70
2022-12-03T03:57:15.880Z,17.80
2022-12-03T03:59:42.990Z,17.80
2022-12-03T04:02:28.744Z,17.70
2022-12-03T04:04:55.954Z,17.70
2022-12-03T04:07:23.022Z,17.70
2022-12-03T04:09:51.161Z,17.70
2022-12-03T04:12:36.688Z,17.70
2022-12-03T04:15:03.913Z,17.70
2022-12-03T04:17:30.787Z,17.60
2022-12-03T04:19:57.629Z,17.70
2022-12-03T04:22:40.095Z,17.70
2022-12-03T04:25:27.771Z,17.70
2022-12-03T04:28:13.599Z,17.60
2022-12-03T04:30:40.637Z,17.80
2022-12-03T04:33:26.376Z,17.70
2022-12-03T04:35:53.612Z,18.30
2022-12-03T04:38:20.553Z,17.80
2022-12-03T04:41:04.323Z,17.80
2022-12-03T04:43:34.091Z,17.80
2022-12-03T04:46:02.293Z,17.80
2022-12-03T04:48:29.276Z,17.70
2022-12-03T04:50:56.167Z,17.80
2022-12-03T04:53:23.116Z,18.30
2022-12-03T04:55:50.121Z,17.70
2022-12-03T04:58:17.002Z,17.70
2022-12-03T05:00:43.947Z,17.70
2022-12-03T05:03:10.903Z,17.80
2022-12-03T05:05:38.187Z,17.80
2022-12-03T05:08:05.813Z,17.80
2022-12-03T05:10:33.621Z,17.70
2022-12-03T05:13:00.490Z,17.80
2022-12-03T05:15:27.418Z,17.70
2022-12-03T05:17:54.307Z,17.80
2022-12-03T05:20:39.793Z,17.90
2022-12-03T05:23:06.873Z,17.90
2022-12-03T05:25:34.004Z,17.80
2022-12-03T05:28:00.997Z,17.90
2022-12-03T05:30:27.988Z,17.90
2022-12-03T05:32:55.027Z,17.90
2022-12-03T05:35:21.923Z,17.80
2022-12-03T05:37:48.830Z,17.90
2022-12-03T05:40:16.322Z,17.90
2022-12-03T05:42:55.500Z,17.80
2022-12-03T05:45:27.176Z,17.90
2022-12-03T05:47:55.808Z,17.80
2022-12-03T05:50:25.071Z,17.80
2022-12-03T05:52:52.102Z,17.80
2022-12-03T05:55:19.864Z,17.90
2022-12-03T05:57:49.276Z,17.90
2022-12-03T06:00:21.858Z,17.90
2022-12-03T06:02:48.945Z,18.10
2022-12-03T06:05:17.088Z,18.20
2022-12-03T06:07:44.222Z,18.00
2022-12-03T06:10:14.447Z,18.00
2022-12-03T06:12:42.393Z,18.10
2022-12-03T06:15:11.068Z,17.90
2022-12-03T06:17:38.086Z,18.00
2022-12-03T06:20:05.971Z,18.60
2022-12-03T06:22:33.042Z,17.90
2022-12-03T06:25:06.170Z,18.00
2022-12-03T06:27:34.099Z,18.00
2022-12-03T06:30:00.979Z,18.10
2022-12-03T06:32:28.146Z,18.10
2022-12-03T06:34:55.459Z,18.30
2022-12-03T06:37:22.591Z,18.40
2022-12-03T06:40:05.590Z,18.10
2022-12-03T06:42:32.535Z,18.20
2022-12-03T06:44:59.428Z,18.20
2022-12-03T06:47:26.358Z,18.10
2022-12-03T06:49:53.289Z,18.00
2022-12-03T06:52:20.166Z,18.00
2022-12-03T06:54:47.116Z,18.20
2022-12-03T06:57:14.283Z,18.40
2022-12-03T06:59:41.181Z,18.60
2022-12-03T07:02:08.289Z,19.00
2022-12-03T07:04:36.686Z,19.30
2022-12-03T07:07:03.625Z,19.50
2022-12-03T07:09:30.526Z,19.30
2022-12-03T07:11:57.408Z,19.20
2022-12-03T07:14:24.371Z,19.60
2022-12-03T07:16:51.506Z,19.50
2022-12-03T07:19:18.503Z,19.80
2022-12-03T07:21:45.439Z,19.50
2022-12-03T07:24:12.483Z,19.00
2022-12-03T07:26:39.592Z,19.20
2022-12-03T07:29:06.587Z,19.00
2022-12-03T07:31:33.577Z,19.00
2022-12-03T07:34:02.069Z,18.80
2022-12-03T07:36:29.019Z,18.80
2022-12-03T07:38:55.928Z,18.60
2022-12-03T07:41:22.899Z,18.10
2022-12-03T07:43:49.835Z,18.30
2022-12-03T07:46:16.989Z,18.50
2022-12-03T07:48:43.931Z,18.40
2022-12-03T07:51:15.168Z,18.60
2022-12-03T07:53:42.767Z,18.70
2022-12-03T07:56:09.699Z,18.60
2022-12-03T07:58:36.688Z,18.30
2022-12-03T08:01:03.620Z,18.60
2022-12-03T08:03:30.497Z,18.40
2022-12-03T08:05:57.381Z,18.40
2022-12-03T08:08:24.332Z,18.40
2022-12-03T08:10:51.212Z,18.40
2022-12-03T08:13:19.212Z,18.70
2022-12-03T08:15:46.760Z,18.70
2022-12-03T08:18:15.054Z,18.70
2022-12-03T08:20:43.799Z,18.90
2022-12-03T08:23:14.798Z,18.80
2022-12-03T08:25:42.167Z,19.20
2022-12-03T08:28:17.145Z,19.40
2022-12-03T08:30:49.568Z,19.90
2022-12-03T08:33:42.608Z,19.70
2022-12-03T08:36:14.703Z,19.70
2022-12-03T08:38:41.659Z,19.20
2022-12-03T08:41:16.472Z,19.40
2022-12-03T08:43:44.221Z,19.80
2022-12-03T08:46:19.416Z,19.90
2022-12-03T08:48:49.363Z,19.90
2022-12-03T08:51:23.968Z,19.90
2022-12-03T08:54:01.836Z,20.20
2022-12-03T08:56:31.215Z,19.90
2022-12-03T08:59:25.274Z,19.40
2022-12-03T09:01:53.873Z,19.60
2022-12-03T09:04:36.204Z,19.80
2022-12-03T09:07:03.211Z,19.80
2022-12-03T09:09:30.589Z,19.70
2022-12-03T09:11:57.594Z,19.70
2022-12-03T09:14:24.803Z,19.90
2022-12-03T09:16:55.768Z,19.70
2022-12-03T09:19:27.689Z,19.80
2022-12-03T09:21:55.338Z,19.70
2022-12-03T09:24:22.745Z,19.80
2022-12-03T09:26:50.231Z,19.70
2022-12-03T09:29:17.342Z,19.60
2022-12-03T09:31:44.308Z,19.50
2022-12-03T09:34:11.615Z,19.50
2022-12-03T09:36:38.513Z,19.60
2022-12-03T09:39:05.617Z,20.00
2022-12-03T09:41:32.661Z,20.60
2022-12-03T09:44:04.477Z,20.70
2022-12-03T09:46:33.878Z,20.80
2022-12-03T09:49:01.533Z,20.30
2022-12-03T09:51:34.644Z,20.30
2022-12-03T09:54:07.198Z,20.20
2022-12-03T09:56:37.459Z,20.20
2022-12-03T09:59:13.185Z,19.70
2022-12-03T10:01:40.326Z,19.60
2022-12-03T10:04:07.944Z,19.30
2022-12-03T10:06:39.827Z,19.20
2022-12-03T10:09:12.402Z,19.10
2022-12-03T10:11:39.423Z,18.80
2022-12-03T10:14:06.656Z,18.80
2022-12-03T10:16:36.177Z,18.70
2022-12-03T10:19:03.195Z,18.80
2022-12-03T10:21:32.277Z,18.90
2022-12-03T10:24:35.784Z,18.80
2022-12-03T10:27:05.987Z,19.00
2022-12-03T10:29:35.871Z,18.90
2022-12-03T10:32:08.618Z,18.80
2022-12-03T10:34:40.657Z,18.90
2022-12-03T10:37:27.779Z,18.80
2022-12-03T10:40:01.506Z,18.70
2022-12-03T10:42:31.268Z,18.80
2022-12-03T10:45:22.840Z,18.90
2022-12-03T10:48:17.400Z,19.00
2022-12-03T10:50:55.067Z,19.00
2022-12-03T10:53:26.195Z,18.90
2022-12-03T10:55:58.826Z,19.30
2022-12-03T10:58:28.564Z,19.20
2022-12-03T11:00:58.101Z,19.20
2022-12-03T11:03:27.862Z,19.00
2022-12-03T11:05:56.329Z,19.20
2022-12-03T11:08:29.224Z,19.10
2022-12-03T11:11:01.310Z,18.90
2022-12-03T11:13:48.497Z,18.70
2022-12-03T11:16:40.819Z,18.60
2022-12-03T11:19:17.556Z,18.70
2022-12-03T11:22:06.097Z,18.80
2022-12-03T11:24:34.664Z,18.90
2022-12-03T11:27:01.531Z,19.20
2022-12-03T11:29:46.614Z,19.30
2022-12-03T11:32:38.349Z,19.10
2022-12-03T11:35:38.409Z,18.60
2022-12-03T11:38:50.689Z,18.80
2022-12-03T11:41:29.957Z,19.30
2022-12-03T11:44:30.057Z,19.10
2022-12-03T11:46:58.389Z,19.20
2022-12-03T11:49:35.739Z,19.10
2022-12-03T11:52:19.358Z,19.20
2022-12-03T11:55:02.505Z,19.10
2022-12-03T11:57:36.760Z,19.20
2022-12-03T12:00:17.401Z,19.40
2022-12-03T12:02:44.594Z,19.30
2022-12-03T12:05:17.877Z,19.40
2022-12-03T12:07:47.960Z,19.20
2022-12-03T12:10:39.187Z,19.00
2022-12-03T12:13:06.642Z,18.90
2022-12-03T12:15:39.427Z,18.40
2022-12-03T12:18:44.419Z,18.80
2022-12-03T12:21:43.075Z,19.10
2022-12-03T12:24:28.724Z,18.80
2022-12-03T12:26:57.205Z,18.70
2022-12-03T12:29:24.126Z,18.70
2022-12-03T12:31:54.143Z,18.90
2022-12-03T12:34:21.198Z,19.00
2022-12-03T12:36:48.079Z,18.80
2022-12-03T12:39:16.321Z,18.80
2022-12-03T12:41:47.844Z,18.60
2022-12-03T12:44:15.006Z,18.50
2022-12-03T12:46:48.136Z,18.50
2022-12-03T12:49:16.307Z,18.40
2022-12-03T12:51:47.600Z,18.40
2022-12-03T12:54:16.730Z,18.10
2022-12-03T12:56:45.539Z,18.20
2022-12-03T12:59:19.081Z,18.60
2022-12-03T13:01:50.211Z,18.80
2022-12-03T13:04:22.772Z,18.70
2022-12-03T13:06:53.208Z,18.60
2022-12-03T13:09:24.252Z,18.60
2022-12-03T13:11:58.157Z,18.80
2022-12-03T13:14:30.223Z,19.30
2022-12-03T13:17:00.945Z,18.80
2022-12-03T13:19:31.099Z,19.00
2022-12-03T13:22:01.907Z,19.10
2022-12-03T13:24:32.326Z,19.70
2022-12-03T13:27:25.916Z,19.20
2022-12-03T13:30:02.864Z,19.10
2022-12-03T13:32:36.023Z,19.70
2022-12-03T13:35:25.483Z,19.60
2022-12-03T13:37:52.725Z,19.70
2022-12-03T13:40:30.796Z,19.20
2022-12-03T13:42:58.836Z,19.00
2022-12-03T13:45:36.443Z,18.80
2022-12-03T13:48:15.147Z,18.50
2022-12-03T13:50:46.854Z,18.70
2022-12-03T13:53:24.715Z,18.60
2022-12-03T13:55:57.509Z,18.30
2022-12-03T13:58:24.346Z,18.80
2022-12-03T14:00:51.325Z,18.70
2022-12-03T14:03:18.246Z,18.70
2022-12-03T14:05:45.075Z,18.50
2022-12-03T14:08:12.061Z,18.40
2022-12-03T14:10:39.066Z,18.50
2022-12-03T14:13:06.137Z,18.60
2022-12-03T14:15:36.025Z,18.60
2022-12-03T14:18:02.930Z,18.50
2022-12-03T14:20:29.908Z,18.50
2022-12-03T14:22:59.514Z,18.30
2022-12-03T14:25:27.075Z,18.40
2022-12-03T14:27:54.286Z,18.50
2022-12-03T14:30:21.198Z,18.30
2022-12-03T14:32:48.143Z,18.30
2022-12-03T14:35:15.318Z,18.40
2022-12-03T14:37:42.241Z,18.60
2022-12-03T14:40:09.548Z,18.50
2022-12-03T14:42:36.864Z,18.40
2022-12-03T14:45:04.579Z,18.40
2022-12-03T14:47:31.642Z,18.40
2022-12-03T14:49:58.582Z,18.80
2022-12-03T14:52:25.713Z,18.60
2022-12-03T14:54:52.631Z,18.60
2022-12-03T14:57:19.582Z,18.60
2022-12-03T14:59:47.207Z,18.50
2022-12-03T15:02:14.262Z,18.50
2022-12-03T15:04:41.760Z,18.60
2022-12-03T15:07:09.238Z,18.70
2022-12-03T15:09:36.400Z,18.80
2022-12-03T15:12:04.677Z,18.70
2022-12-03T15:14:31.721Z,18.70
2022-12-03T15:16:59.005Z,18.60
2022-12-03T15:19:26.057Z,18.50
2022-12-03T15:21:52.914Z,18.50
2022-12-03T15:24:19.829Z,18.30
2022-12-03T15:26:46.995Z,18.30
2022-12-03T15:29:14.114Z,18.30
2022-12-03T15:31:41.090Z,18.50
2022-12-03T15:34:08.143Z,18.30
2022-12-03T15:36:35.248Z,18.40
2022-12-03T15:39:02.452Z,18.50
2022-12-03T15:41:29.732Z,18.50
2022-12-03T15:44:03.985Z,18.60
2022-12-03T15:46:31.592Z,18.80
2022-12-03T15:48:58.905Z,18.70
2022-12-03T15:51:26.005Z,18.70
2022-12-03T15:53:52.920Z,18.50
2022-12-03T15:56:20.319Z,18.50
2022-12-03T15:58:47.426Z,18.40
2022-12-03T16:01:14.685Z,18.50
2022-12-03T16:03:41.863Z,18.50
2022-12-03T16:06:09.479Z,18.40
2022-12-03T16:08:36.514Z,18.40
2022-12-03T16:11:03.411Z,18.30
2022-12-03T16:13:30.332Z,18.70
2022-12-03T16:15:57.306Z,18.80
2022-12-03T16:18:24.301Z,18.80
2022-12-03T16:20:51.303Z,18.60
2022-12-03T16:23:18.240Z,18.80
2022-12-03T16:25:45.274Z,18.50
2022-12-03T16:28:12.232Z,18.50
2022-12-03T16:30:39.401Z,18.70
2022-12-03T16:33:06.381Z,18.60
2022-12-03T16:35:33.975Z,18.80
2022-12-03T16:38:01.150Z,18.90
2022-12-03T16:40:28.060Z,18.70
2022-12-03T16:42:54.964Z,18.70
2022-12-03T16:45:51.657Z,18.80
2022-12-03T16:48:19.127Z,18.60
2022-12-03T16:50:46.190Z,18.70
2022-12-03T16:53:14.054Z,18.60
2022-12-03T16:55:41.248Z,18.60
2022-12-03T16:58:08.153Z,18.80
2022-12-03T17:00:35.614Z,18.80
2022-12-03T17:03:02.690Z,19.10
2022-12-03T17:05:30.196Z,19.00
2022-12-03T17:07:57.376Z,18.90
2022-12-03T17:10:24.469Z,18.90
2022-12-03T17:13:10.351Z,18.90
2022-12-03T17:15:38.423Z,18.70
2022-12-03T17:18:06.278Z,18.70
2022-12-03T17:20:33.791Z,18.60
2022-12-03T17:23:01.245Z,18.60
2022-12-03T17:25:29.331Z,18.50
2022-12-03T17:27:56.534Z,18.70
2022-12-03T17:30:23.468Z,18.70
2022-12-03T17:32:50.622Z,18.70
2022-12-03T17:35:18.091Z,18.60
2022-12-03T17:37:47.772Z,18.60
2022-12-03T17:40:17.870Z,18.50
2022-12-03T17:42:44.965Z,19.00
2022-12-03T17:45:12.766Z,19.00
2022-12-03T17:47:40.130Z,18.90
2022-12-03T17:50:08.213Z,18.70
2022-12-03T17:52:35.241Z,18.70
2022-12-03T17:55:17.218Z,18.60
2022-12-03T17:57:44.875Z,18.70
2022-12-03T18:00:12.467Z,18.70
2022-12-03T18:02:39.591Z,18.60
2022-12-03T18:05:07.141Z,18.70
2022-12-03T18:07:35.512Z,18.80
2022-12-03T18:10:03.541Z,18.80
2022-12-03T18:12:30.494Z,19.00
2022-12-03T18:14:57.411Z,18.90
2022-12-03T18:17:24.559Z,18.90
2022-12-03T18:19:51.814Z,18.80
2022-12-03T18:22:19.153Z,18.80
2022-12-03T18:24:51.982Z,18.70
2022-12-03T18:27:21.065Z,18.60
2022-12-03T18:29:48.255Z,18.70
2022-12-03T18:32:28.265Z,18.80
2022-12-03T18:34:56.535Z,18.90
2022-12-03T18:37:27.170Z,18.80
2022-12-03T18:39:54.822Z,18.60
2022-12-03T18:42:23.414Z,18.80
2022-12-03T18:44:55.697Z,19.20
2022-12-03T18:47:28.791Z,19.20
2022-12-03T18:49:56.716Z,18.80
2022-12-03T18:52:25.218Z,18.90
2022-12-03T18:54:52.450Z,18.90
2022-12-03T18:57:19.492Z,18.90
2022-12-03T18:59:46.452Z,18.70
2022-12-03T19:05:09.057Z,19.00
2022-12-03T19:07:36.312Z,19.00
2022-12-03T19:10:03.987Z,19.00
2022-12-03T19:12:33.029Z,19.10
2022-12-03T19:14:59.988Z,18.90
2022-12-03T19:17:27.482Z,19.00
2022-12-03T19:19:55.628Z,18.90
2022-12-03T19:22:22.905Z,18.90
2022-12-03T19:24:50.259Z,18.90
2022-12-03T19:27:17.187Z,18.90
2022-12-03T19:29:44.412Z,18.70
2022-12-03T19:32:11.498Z,18.70
2022-12-03T19:34:38.563Z,18.60
2022-12-03T19:37:05.461Z,18.80
2022-12-03T19:39:33.369Z,18.70
2022-12-03T19:42:00.340Z,18.60
2022-12-03T19:44:27.295Z,18.70
2022-12-03T19:46:54.511Z,18.60
2022-12-03T19:49:21.527Z,18.50
2022-12-03T19:51:48.575Z,18.60
2022-12-03T19:54:16.682Z,18.40
2022-12-03T19:56:44.332Z,18.60
2022-12-03T19:59:14.603Z,18.30
2022-12-03T20:01:43.458Z,18.70
2022-12-03T20:04:12.151Z,18.50
2022-12-03T20:06:39.592Z,18.50
2022-12-03T20:09:13.516Z,18.60
2022-12-03T20:11:42.111Z,18.60
2022-12-03T20:14:13.098Z,18.50
2022-12-03T20:16:40.043Z,18.60
2022-12-03T20:19:11.836Z,18.40
2022-12-03T20:21:39.771Z,18.40
2022-12-03T20:24:08.877Z,18.60
2022-12-03T20:26:37.501Z,18.50
2022-12-03T20:29:04.425Z,18.30
2022-12-03T20:31:32.510Z,18.70
2022-12-03T20:34:01.903Z,18.70
2022-12-03T20:36:30.809Z,18.60
2022-12-03T20:39:00.864Z,18.50
2022-12-03T20:41:31.453Z,18.60
2022-12-03T20:43:59.567Z,18.50
2022-12-03T20:46:31.767Z,18.70
2022-12-03T20:48:59.465Z,18.70
2022-12-03T20:51:33.185Z,18.70
2022-12-03T20:54:01.517Z,18.60
2022-12-03T20:56:32.244Z,18.70
2022-12-03T20:59:05.096Z,18.80
2022-12-03T21:01:38.565Z,18.70
2022-12-03T21:04:07.074Z,18.70
2022-12-03T21:06:39.072Z,18.50
2022-12-03T21:09:07.476Z,18.50
2022-12-03T21:11:38.951Z,18.60
2022-12-03T21:14:06.308Z,18.60
2022-12-03T21:19:24.156Z,18.60
2022-12-03T21:21:51.121Z,18.60
2022-12-03T21:24:20.977Z,18.70
2022-12-03T21:26:48.981Z,18.80
2022-12-03T21:29:18.638Z,18.90
2022-12-03T21:31:45.993Z,19.00
2022-12-03T21:34:13.079Z,18.70
2022-12-03T21:36:40.435Z,18.90
2022-12-03T21:39:07.801Z,18.80
2022-12-03T21:41:38.046Z,18.80
2022-12-03T21:44:04.984Z,18.80
2022-12-03T21:47:10.838Z,19.10
2022-12-03T21:49:20.374Z,18.90
2022-12-03T21:51:47.466Z,19.00
2022-12-03T21:54:14.985Z,19.00
2022-12-03T21:56:41.837Z,18.80
2022-12-03T21:59:08.760Z,18.80
2022-12-03T22:01:35.841Z,18.70
2022-12-03T22:04:02.904Z,18.60
2022-12-03T22:06:29.801Z,18.60
2022-12-03T22:08:56.857Z,18.70
2022-12-03T22:11:24.500Z,18.70
2022-12-03T22:13:51.723Z,18.80
2022-12-03T22:16:22.239Z,18.90
2022-12-03T22:18:49.755Z,18.60
2022-12-03T22:21:19.917Z,18.50
2022-12-03T22:23:47.820Z,18.70
2022-12-03T22:26:17.230Z,18.90
2022-12-03T22:28:49.568Z,18.80
2022-12-03T22:31:17.755Z,18.60
2022-12-03T22:33:51.099Z,18.70
2022-12-03T22:36:21.634Z,18.60
2022-12-03T22:38:50.491Z,18.70
2022-12-03T22:41:19.940Z,18.80
2022-12-03T22:43:47.497Z,18.80
2022-12-03T22:46:15.625Z,18.80
2022-12-03T22:48:44.029Z,18.80
2022-12-03T22:51:22.124Z,18.70
2022-12-03T22:54:00.011Z,18.90
2022-12-03T22:56:29.036Z,18.80
2022-12-03T22:58:56.258Z,18.70
2022-12-03T23:01:33.815Z,18.60
2022-12-03T23:04:01.673Z,18.60
2022-12-03T23:06:30.128Z,18.40
2022-12-03T23:09:00.242Z,18.80
2022-12-03T23:11:30.462Z,18.90
2022-12-03T23:14:02.461Z,18.70
2022-12-03T23:16:31.584Z,18.90
2022-12-03T23:19:00.306Z,19.10
2022-12-03T23:21:33.401Z,19.10
2022-12-03T23:24:02.308Z,18.90
2022-12-03T23:26:31.846Z,18.90
2022-12-03T23:29:01.635Z,18.90
2022-12-03T23:31:33.032Z,18.80
2022-12-03T23:34:00.708Z,18.70
2022-12-03T23:36:30.214Z,18.60
2022-12-03T23:38:57.371Z,18.90
2022-12-03T23:41:25.358Z,18.80
2022-12-03T23:43:52.835Z,18.70
2022-12-03T23:46:25.791Z,18.70
2022-12-03T23:48:53.147Z,18.80
2022-12-03T23:51:23.660Z,18.90
2022-12-03T23:53:56.562Z,18.80
2022-12-03T23:56:28.431Z,18.80
2022-12-03T23:58:58.363Z,18.70
